Time;durP1;ratioP1;P1;durP2;ratioP2;P2;SDS_P1;SDS_P2;PMS_P1;PMS_P2;Temp;Humidity;BMP_temperature;BMP_pressure;BME280_temperature;BME280_humidity;BME280_pressure;Samples;Min_cycle;Max_cycle;Signal;HPM_P1;HPM_P2
2021/07/05 00:01:44;;;;;;;9.30;7.80;;;14.80;99.90;;;;;;5056485;28;20464;-78
2021/07/05 00:04:10;;;;;;;11.13;7.60;;;14.80;99.90;;;;;;5055538;28;20793;-78
2021/07/05 00:06:37;;;;;;;9.88;8.02;;;14.80;99.90;;;;;;5057582;28;20868;-77
2021/07/05 00:09:04;;;;;;;9.77;7.85;;;14.80;99.90;;;;;;5057187;28;20393;-78
2021/07/05 00:11:30;;;;;;;9.10;7.20;;;14.80;99.90;;;;;;5054631;28;20381;-77
2021/07/05 00:13:55;;;;;;;9.80;7.20;;;14.80;99.90;;;;;;5053649;28;20389;-77
2021/07/05 00:16:21;;;;;;;9.38;6.93;;;14.80;99.90;;;;;;5054436;28;20417;-77
2021/07/05 00:18:47;;;;;;;9.07;7.30;;;14.80;99.90;;;;;;5054473;28;20797;-78
2021/07/05 00:21:12;;;;;;;9.60;7.30;;;14.80;99.90;;;;;;5052971;28;20394;-77
2021/07/05 00:23:38;;;;;;;9.00;7.23;;;14.80;99.90;;;;;;5054883;28;20747;-77
2021/07/05 00:26:04;;;;;;;8.40;7.20;;;14.80;99.90;;;;;;5054824;28;20447;-76
2021/07/05 00:28:29;;;;;;;9.33;6.60;;;14.90;99.90;;;;;;5054573;28;20394;-77
2021/07/05 00:30:55;;;;;;;10.27;7.55;;;14.90;99.90;;;;;;5053494;28;20425;-77
2021/07/05 00:33:21;;;;;;;9.60;7.10;;;14.80;99.90;;;;;;5052823;28;20953;-77
2021/07/05 00:35:46;;;;;;;8.88;6.70;;;14.90;99.90;;;;;;5053590;28;20471;-78
2021/07/05 00:38:12;;;;;;;10.25;7.40;;;14.90;99.90;;;;;;5053076;28;20385;-78
2021/07/05 00:40:37;;;;;;;8.00;7.00;;;14.90;99.90;;;;;;5052274;28;20484;-78
2021/07/05 00:43:03;;;;;;;10.63;7.43;;;14.80;99.90;;;;;;5052071;28;20385;-78
2021/07/05 00:45:31;;;;;;;11.50;7.10;;;14.90;99.90;;;;;;5054013;28;20638;-77
2021/07/05 00:47:57;;;;;;;10.32;6.75;;;14.80;99.90;;;;;;5054319;28;20805;-77
2021/07/05 00:50:27;;;;;;;7.70;6.90;;;14.90;99.90;;;;;;5053939;28;20392;-78
2021/07/05 00:52:54;;;;;;;8.53;6.80;;;14.90;99.90;;;;;;5052438;28;20461;-77
2021/07/05 00:55:21;;;;;;;9.18;7.30;;;14.90;99.90;;;;;;5053087;28;20381;-77
2021/07/05 00:57:47;;;;;;;9.00;7.18;;;14.80;99.90;;;;;;5052638;28;20385;-78
2021/07/05 01:00:15;;;;;;;9.47;7.20;;;14.80;99.90;;;;;;5051678;28;20409;-77
2021/07/05 01:02:42;;;;;;;9.30;6.80;;;14.90;99.90;;;;;;5051601;28;20944;-78
2021/07/05 01:05:08;;;;;;;10.73;7.00;;;14.90;99.90;;;;;;5051831;28;20382;-78
2021/07/05 01:07:34;;;;;;;8.10;6.83;;;14.90;99.90;;;;;;5052056;28;20388;-78
2021/07/05 01:10:00;;;;;;;7.73;6.80;;;14.90;99.90;;;;;;5051732;28;20754;-77
2021/07/05 01:12:26;;;;;;;11.20;7.20;;;14.90;99.90;;;;;;5051451;28;20428;-77
2021/07/05 01:14:51;;;;;;;11.82;7.50;;;14.80;99.90;;;;;;5051049;28;20419;-78
2021/07/05 01:17:17;;;;;;;10.10;7.10;;;14.80;99.90;;;;;;5051530;28;20417;-76
2021/07/05 01:19:49;;;;;;;8.47;7.10;;;14.90;99.90;;;;;;5058123;28;20889;-78
2021/07/05 01:22:16;;;;;;;10.07;7.18;;;14.90;99.90;;;;;;5053883;28;20754;-77
2021/07/05 01:24:43;;;;;;;15.00;7.72;;;14.80;99.90;;;;;;5060800;28;20519;-76
2021/07/05 01:27:09;;;;;;;10.45;7.65;;;14.80;99.90;;;;;;5060514;28;20384;-76
2021/07/05 01:29:36;;;;;;;11.65;8.10;;;14.80;99.90;;;;;;5058251;28;20388;-77
2021/07/05 01:32:02;;;;;;;11.50;8.10;;;14.80;99.90;;;;;;5067853;28;20444;-78
2021/07/05 01:34:28;;;;;;;8.85;7.35;;;14.80;99.90;;;;;;5052218;28;20389;-77
2021/07/05 01:36:54;;;;;;;9.02;7.10;;;14.80;99.90;;;;;;5054421;28;20401;-78
2021/07/05 01:39:20;;;;;;;11.00;6.75;;;14.90;99.90;;;;;;5057404;28;20381;-75
2021/07/05 01:41:46;;;;;;;9.50;7.05;;;14.90;99.90;;;;;;5069680;28;20457;-76
2021/07/05 01:44:12;;;;;;;7.30;6.43;;;15.00;99.90;;;;;;5066276;28;20385;-77
2021/07/05 01:46:38;;;;;;;10.30;6.50;;;15.10;99.90;;;;;;5067079;28;20368;-77
2021/07/05 01:49:04;;;;;;;12.32;6.80;;;15.10;99.90;;;;;;5054049;28;20396;-78
2021/07/05 01:51:30;;;;;;;6.93;5.75;;;15.20;99.90;;;;;;5052088;28;20390;-78
2021/07/05 01:53:55;;;;;;;11.43;6.35;;;15.30;99.90;;;;;;5055955;28;20381;-78
2021/07/05 01:56:21;;;;;;;8.63;6.40;;;15.30;99.90;;;;;;5053770;28;20500;-78
2021/07/05 01:58:47;;;;;;;8.63;5.93;;;15.40;99.90;;;;;;5052229;28;20381;-78
2021/07/05 02:01:12;;;;;;;13.60;6.07;;;15.40;99.90;;;;;;5051722;28;20408;-77
2021/07/05 02:03:38;;;;;;;6.17;5.60;;;15.50;99.90;;;;;;5051515;28;20381;-77
2021/07/05 02:06:04;;;;;;;8.77;5.83;;;15.50;99.90;;;;;;5052326;28;20393;-78
2021/07/05 02:08:30;;;;;;;7.23;5.20;;;15.40;99.90;;;;;;5051243;28;20913;-78
2021/07/05 02:10:55;;;;;;;8.40;6.18;;;15.40;99.90;;;;;;5056143;28;20385;-77
2021/07/05 02:13:24;;;;;;;5.82;5.20;;;15.40;99.90;;;;;;5055180;28;20398;-77
2021/07/05 02:15:53;;;;;;;7.60;5.70;;;15.40;99.90;;;;;;5054477;28;20820;-77
2021/07/05 02:18:19;;;;;;;7.85;5.60;;;15.40;99.90;;;;;;5054899;28;20373;-77
2021/07/05 02:20:45;;;;;;;7.53;6.10;;;15.30;99.90;;;;;;5054604;28;20411;-77
2021/07/05 02:23:13;;;;;;;9.75;6.05;;;15.40;99.90;;;;;;5053364;28;20389;-77
2021/07/05 02:25:40;;;;;;;7.35;5.88;;;15.40;99.90;;;;;;5056151;28;20385;-78
2021/07/05 02:28:09;;;;;;;6.93;6.22;;;15.50;99.90;;;;;;5056780;28;20752;-78
2021/07/05 02:30:35;;;;;;;6.40;5.80;;;15.50;99.90;;;;;;5059457;28;20404;-78
2021/07/05 02:33:03;;;;;;;13.60;6.35;;;15.60;99.90;;;;;;5070029;28;20492;-77
2021/07/05 02:35:31;;;;;;;9.93;5.90;;;15.60;99.90;;;;;;5054708;28;20395;-77
2021/07/05 02:37:59;;;;;;;5.70;5.20;;;15.70;99.90;;;;;;5054490;28;20436;-77
2021/07/05 02:40:27;;;;;;;7.47;5.85;;;15.60;99.90;;;;;;5052797;28;20389;-78
2021/07/05 02:42:53;;;;;;;8.50;5.90;;;15.60;99.90;;;;;;5053895;28;20861;-77
2021/07/05 02:45:22;;;;;;;11.75;6.35;;;15.70;99.90;;;;;;5054400;28;20384;-78
2021/07/05 02:47:52;;;;;;;7.68;6.03;;;15.60;99.90;;;;;;5054237;28;20373;-77
2021/07/05 02:50:19;;;;;;;7.67;5.30;;;15.60;99.90;;;;;;5053941;28;20381;-78
2021/07/05 02:52:45;;;;;;;6.38;5.70;;;15.60;99.90;;;;;;5054465;28;20452;-78
2021/07/05 02:55:13;;;;;;;10.82;6.47;;;15.70;99.90;;;;;;5053975;28;20389;-77
2021/07/05 02:57:43;;;;;;;10.85;5.90;;;15.70;99.90;;;;;;5054468;28;20448;-77
2021/07/05 03:00:14;;;;;;;6.60;5.90;;;15.80;99.90;;;;;;5054944;28;20720;-78
2021/07/05 03:02:39;;;;;;;8.40;6.15;;;15.80;99.90;;;;;;5054586;28;20385;-80
2021/07/05 03:05:08;;;;;;;14.27;6.30;;;15.90;99.90;;;;;;5055220;28;20388;-77
2021/07/05 03:07:34;;;;;;;6.65;6.00;;;15.90;99.90;;;;;;5055745;28;20396;-77
2021/07/05 03:10:00;;;;;;;8.80;6.38;;;16.00;99.90;;;;;;5056031;28;20413;-78
2021/07/05 03:12:26;;;;;;;7.50;6.30;;;16.00;99.90;;;;;;5057888;28;20410;-78
2021/07/05 03:14:54;;;;;;;6.90;6.20;;;16.00;99.90;;;;;;5057042;28;20417;-78
2021/07/05 03:17:21;;;;;;;14.52;6.82;;;16.10;99.90;;;;;;5059337;28;20405;-78
2021/07/05 03:19:46;;;;;;;8.60;6.60;;;16.10;99.90;;;;;;5070501;28;20870;-76
2021/07/05 03:22:13;;;;;;;9.67;6.40;;;16.10;99.90;;;;;;5056362;28;20393;-77
2021/07/05 03:24:39;;;;;;;7.18;6.47;;;16.20;99.90;;;;;;5055390;28;20754;-77
2021/07/05 03:27:05;;;;;;;13.20;6.35;;;16.30;99.90;;;;;;5056063;28;20481;-78
2021/07/05 03:29:31;;;;;;;7.37;6.10;;;16.30;99.90;;;;;;5069955;28;20413;-77
2021/07/05 03:31:58;;;;;;;7.00;5.60;;;16.30;99.90;;;;;;5054972;28;20762;-77
2021/07/05 03:34:24;;;;;;;6.63;5.82;;;16.40;99.90;;;;;;5052833;28;20383;-76
2021/07/05 03:36:49;;;;;;;7.37;5.90;;;16.40;99.90;;;;;;5052837;28;20405;-76
2021/07/05 03:39:15;;;;;;;8.57;6.00;;;16.40;99.90;;;;;;5051370;28;20479;-76
2021/07/05 03:41:42;;;;;;;10.20;6.05;;;16.40;99.90;;;;;;5052669;28;20381;-76
2021/07/05 03:44:07;;;;;;;9.48;5.93;;;16.40;99.90;;;;;;5052178;28;20393;-77
2021/07/05 03:46:34;;;;;;;8.00;6.20;;;16.50;99.90;;;;;;5052398;28;20743;-77
2021/07/05 03:48:59;;;;;;;10.02;5.70;;;16.50;99.90;;;;;;5052294;28;20386;-77
2021/07/05 03:51:25;;;;;;;7.63;5.70;;;16.50;99.90;;;;;;5052308;28;20393;-77
2021/07/05 03:53:50;;;;;;;7.37;5.63;;;16.60;99.90;;;;;;5053162;28;20381;-76
2021/07/05 03:56:16;;;;;;;6.60;5.57;;;16.70;99.90;;;;;;5053396;28;20397;-76
2021/07/05 03:58:41;;;;;;;8.57;5.80;;;16.70;99.90;;;;;;5052855;28;20385;-77
2021/07/05 04:01:07;;;;;;;10.98;5.57;;;16.70;99.90;;;;;;5056099;28;20472;-76
2021/07/05 04:03:33;;;;;;;9.90;6.20;;;16.60;99.90;;;;;;5053382;28;20468;-76
2021/07/05 04:05:59;;;;;;;9.07;6.20;;;16.70;99.90;;;;;;5052125;28;20870;-77
2021/07/05 04:08:28;;;;;;;11.35;6.90;;;16.70;99.90;;;;;;5051921;28;20397;-77
2021/07/05 04:10:54;;;;;;;8.65;6.13;;;16.70;99.90;;;;;;5050676;28;20457;-77
2021/07/05 04:13:21;;;;;;;8.18;5.05;;;16.80;99.90;;;;;;5051681;28;20416;-77
2021/07/05 04:15:51;;;;;;;7.45;3.78;;;16.70;99.90;;;;;;5051206;28;20997;-76
2021/07/05 04:18:17;;;;;;;10.32;3.58;;;16.80;99.90;;;;;;5051117;28;20913;-77
2021/07/05 04:20:43;;;;;;;6.32;3.92;;;16.60;99.90;;;;;;5052887;28;20384;-76
2021/07/05 04:23:08;;;;;;;6.35;4.53;;;16.50;99.90;;;;;;5051954;28;20377;-76
2021/07/05 04:25:34;;;;;;;120.80;72.30;;;16.30;99.90;;;;;;5051910;28;20464;-76
2021/07/05 04:28:01;;;;;;;28.33;18.77;;;16.20;99.90;;;;;;5053350;28;20378;-77
2021/07/05 04:30:27;;;;;;;17.05;10.60;;;16.10;99.90;;;;;;5054307;28;20779;-76
2021/07/05 04:32:54;;;;;;;38.97;22.57;;;16.10;99.90;;;;;;5055157;28;20793;-75
2021/07/05 04:35:20;;;;;;;10.05;7.53;;;15.90;99.90;;;;;;5054965;28;20393;-78
2021/07/05 04:37:47;;;;;;;6.90;5.57;;;15.90;99.90;;;;;;5054283;28;20473;-76
2021/07/05 04:40:18;;;;;;;53.92;32.90;;;15.80;99.90;;;;;;5053448;28;20453;-77
2021/07/05 04:42:45;;;;;;;7.07;4.88;;;15.80;99.90;;;;;;5052560;28;20493;-77
2021/07/05 04:45:12;;;;;;;8.23;5.82;;;15.90;99.90;;;;;;5052609;28;20471;-76
2021/07/05 04:47:38;;;;;;;10.45;6.72;;;15.80;99.90;;;;;;5052499;28;20381;-77
2021/07/05 04:50:09;;;;;;;24.90;16.80;;;15.70;99.90;;;;;;5051435;28;20792;-77
2021/07/05 04:52:35;;;;;;;8.48;5.03;;;15.70;99.90;;;;;;5051736;28;20420;-77
2021/07/05 04:55:00;;;;;;;11.85;7.47;;;15.80;99.90;;;;;;5051308;28;20421;-77
2021/07/05 04:57:26;;;;;;;7.40;5.13;;;15.80;99.90;;;;;;5051072;28;20401;-76
2021/07/05 04:59:51;;;;;;;17.17;11.43;;;15.60;99.90;;;;;;5050841;28;20388;-76
2021/07/05 05:02:17;;;;;;;10.90;7.27;;;15.50;99.90;;;;;;5051174;28;20515;-75
2021/07/05 05:04:42;;;;;;;12.75;9.35;;;15.40;99.90;;;;;;5050673;28;20390;-76
2021/07/05 05:07:09;;;;;;;6.95;4.40;;;15.40;99.90;;;;;;5050489;28;20393;-76
2021/07/05 05:09:35;;;;;;;17.73;9.75;;;15.60;99.90;;;;;;5050825;28;20724;-75
2021/07/05 05:12:01;;;;;;;8.30;4.80;;;15.70;99.90;;;;;;5066035;28;20397;-74
2021/07/05 05:14:26;;;;;;;8.52;5.28;;;15.70;99.90;;;;;;5050767;28;20485;-76
2021/07/05 05:16:52;;;;;;;8.07;4.53;;;15.60;99.90;;;;;;5052300;28;20393;-76
2021/07/05 05:19:18;;;;;;;11.67;8.50;;;15.50;99.90;;;;;;5051014;28;20890;-77
2021/07/05 05:21:43;;;;;;;11.53;7.80;;;15.40;99.90;;;;;;5050138;28;20446;-76
2021/07/05 05:24:09;;;;;;;8.57;5.30;;;15.50;99.90;;;;;;5050723;28;20464;-76
2021/07/05 05:26:34;;;;;;;20.48;14.77;;;15.50;99.90;;;;;;5050749;28;20439;-77
2021/07/05 05:29:01;;;;;;;10.95;7.43;;;15.50;99.90;;;;;;5048945;28;20477;-77
2021/07/05 05:31:26;;;;;;;4.00;2.80;;;15.60;99.90;;;;;;5050226;28;20885;-76
2021/07/05 05:33:53;;;;;;;12.37;7.27;;;15.60;99.90;;;;;;5050196;28;20392;-76
2021/07/05 05:36:19;;;;;;;5.57;4.40;;;15.60;99.90;;;;;;5065278;28;20452;-76
2021/07/05 05:38:48;;;;;;;6.40;3.97;;;15.60;99.90;;;;;;5050271;28;20438;-76
2021/07/05 05:41:15;;;;;;;8.90;5.80;;;15.70;99.90;;;;;;5065687;28;20381;-76
2021/07/05 05:43:41;;;;;;;5.50;2.80;;;15.70;99.90;;;;;;5047830;28;20465;-76
2021/07/05 05:46:07;;;;;;;5.00;3.13;;;16.00;98.60;;;;;;5048995;28;20393;-76
2021/07/05 05:48:33;;;;;;;6.88;4.90;;;16.10;92.60;;;;;;5050128;28;20389;-76
2021/07/05 05:50:59;;;;;;;26.70;18.65;;;16.00;95.90;;;;;;5049752;28;20435;-76
2021/07/05 05:53:25;;;;;;;28.47;19.70;;;15.90;97.80;;;;;;5049941;28;20385;-76
2021/07/05 05:55:51;;;;;;;6.32;3.55;;;15.90;96.70;;;;;;5049844;28;20401;-75
2021/07/05 05:58:17;;;;;;;12.20;9.23;;;15.90;96.60;;;;;;5050015;28;20400;-76
2021/07/05 06:00:44;;;;;;;6.38;3.80;;;15.90;97.80;;;;;;5050495;28;20385;-76
2021/07/05 06:03:09;;;;;;;4.32;3.00;;;16.00;97.40;;;;;;5049762;28;20893;-75
2021/07/05 06:05:35;;;;;;;3.30;3.00;;;16.10;99.10;;;;;;5050607;28;20385;-75
2021/07/05 06:08:01;;;;;;;6.50;3.15;;;16.20;99.10;;;;;;5049812;28;20395;-76
2021/07/05 06:10:27;;;;;;;6.67;3.60;;;16.20;99.70;;;;;;5065364;28;20879;-76
2021/07/05 06:12:55;;;;;;;4.53;3.40;;;16.30;99.90;;;;;;5049828;28;20416;-77
2021/07/05 06:15:22;;;;;;;7.97;3.08;;;16.40;99.90;;;;;;5050263;28;20380;-77
2021/07/05 06:17:49;;;;;;;5.63;3.20;;;16.40;99.90;;;;;;5050539;28;20539;-77
2021/07/05 06:20:16;;;;;;;4.50;2.80;;;16.50;99.90;;;;;;5050402;28;20386;-77
2021/07/05 06:22:45;;;;;;;4.95;3.00;;;16.60;98.10;;;;;;5050257;28;20404;-77
2021/07/05 06:25:11;;;;;;;3.65;2.70;;;16.60;96.50;;;;;;5050532;28;20897;-77
2021/07/05 06:27:38;;;;;;;3.97;3.30;;;16.70;93.90;;;;;;5051659;28;20386;-77
2021/07/05 06:30:04;;;;;;;5.97;3.10;;;16.90;93.50;;;;;;5050878;28;20831;-76
2021/07/05 06:32:30;;;;;;;5.70;2.90;;;16.90;94.40;;;;;;5057612;28;20385;-76
2021/07/05 06:34:55;;;;;;;3.80;3.00;;;17.10;93.10;;;;;;5075758;28;20390;-76
2021/07/05 06:37:21;;;;;;;4.73;3.00;;;17.20;90.40;;;;;;5056273;28;20401;-77
2021/07/05 06:39:46;;;;;;;7.33;3.30;;;17.20;86.40;;;;;;5052065;28;20389;-78
2021/07/05 06:42:12;;;;;;;7.15;3.60;;;17.20;87.20;;;;;;5051013;28;20381;-76
2021/07/05 06:44:37;;;;;;;5.18;3.20;;;17.30;87.90;;;;;;5050034;28;20833;-76
2021/07/05 06:47:03;;;;;;;5.37;3.77;;;17.40;88.90;;;;;;5049777;28;20389;-77
2021/07/05 06:49:29;;;;;;;5.40;3.97;;;17.50;89.30;;;;;;5054626;28;20862;-76
2021/07/05 06:51:55;;;;;;;9.48;3.60;;;17.60;90.10;;;;;;5057360;28;20386;-76
2021/07/05 06:54:21;;;;;;;4.35;3.95;;;17.80;86.70;;;;;;5052320;28;20389;-76
2021/07/05 06:56:46;;;;;;;7.60;4.18;;;17.90;86.60;;;;;;5058073;28;20428;-76
2021/07/05 06:59:12;;;;;;;5.05;4.15;;;18.10;85.50;;;;;;5055054;28;20376;-77
2021/07/05 07:01:39;;;;;;;7.63;4.88;;;18.20;83.30;;;;;;5054561;28;20476;-78
2021/07/05 07:04:04;;;;;;;7.80;5.00;;;18.20;81.40;;;;;;5057477;28;20762;-76
2021/07/05 07:06:30;;;;;;;8.77;5.23;;;18.40;80.90;;;;;;5052618;28;20409;-76
2021/07/05 07:08:56;;;;;;;9.13;5.40;;;18.70;77.90;;;;;;5053336;28;20469;-77
2021/07/05 07:11:21;;;;;;;10.87;6.00;;;18.70;78.10;;;;;;5054446;28;20459;-78
2021/07/05 07:13:47;;;;;;;11.93;6.30;;;18.80;74.10;;;;;;5069841;28;20884;-76
2021/07/05 07:16:16;;;;;;;7.88;5.90;;;18.90;74.20;;;;;;5052586;28;20431;-76
2021/07/05 07:21:26;;;;;;;7.97;5.28;;;19.10;74.50;;;;;;5052686;28;20385;-77
2021/07/05 07:23:53;;;;;;;10.95;4.90;;;19.20;69.00;;;;;;5067800;28;20476;-76
2021/07/05 07:26:20;;;;;;;10.23;6.55;;;19.30;68.10;;;;;;5067963;28;20894;-77
2021/07/05 07:28:51;;;;;;;9.07;5.05;;;19.20;68.20;;;;;;5051855;28;20758;-77
2021/07/05 07:31:17;;;;;;;11.55;4.75;;;19.30;67.70;;;;;;5054514;28;20409;-77
2021/07/05 07:33:42;;;;;;;6.60;3.95;;;19.40;62.10;;;;;;5054613;28;20838;-78
2021/07/05 07:36:09;;;;;;;8.73;4.05;;;19.80;58.40;;;;;;5054420;28;20458;-77
2021/07/05 07:38:38;;;;;;;6.57;4.00;;;19.80;59.50;;;;;;5057565;28;20505;-77
2021/07/05 07:41:03;;;;;;;10.70;4.32;;;19.80;61.20;;;;;;5054837;28;20924;-75
2021/07/05 07:43:29;;;;;;;6.55;3.13;;;20.20;58.00;;;;;;5054374;28;20385;-77
2021/07/05 07:45:54;;;;;;;7.80;3.80;;;20.10;56.70;;;;;;5053006;28;20793;-77
2021/07/05 07:48:20;;;;;;;10.07;4.22;;;20.00;55.20;;;;;;5052550;28;20381;-76
2021/07/05 07:50:46;;;;;;;5.82;3.60;;;20.00;54.60;;;;;;5054056;28;20477;-77
2021/07/05 07:53:11;;;;;;;4.87;3.40;;;20.00;55.80;;;;;;5055302;28;20439;-77
2021/07/05 07:55:37;;;;;;;5.50;3.85;;;20.00;56.90;;;;;;5068957;28;20396;-78
2021/07/05 07:58:02;;;;;;;4.90;3.03;;;20.10;56.60;;;;;;5054760;28;20476;-77
2021/07/05 08:00:31;;;;;;;12.10;3.70;;;20.20;57.10;;;;;;5053926;28;20417;-77
2021/07/05 08:02:57;;;;;;;6.40;3.80;;;20.20;57.00;;;;;;5052220;28;20381;-76
2021/07/05 08:05:23;;;;;;;6.50;3.95;;;20.20;55.10;;;;;;5052059;28;20376;-77
2021/07/05 08:07:48;;;;;;;4.17;3.40;;;20.20;56.80;;;;;;5051228;28;20400;-77
2021/07/05 08:10:16;;;;;;;8.87;3.70;;;20.20;53.60;;;;;;5052071;28;20501;-77
2021/07/05 08:12:46;;;;;;;5.70;3.63;;;20.20;56.00;;;;;;5050659;28;20437;-77
2021/07/05 08:15:13;;;;;;;3.50;3.20;;;20.40;52.70;;;;;;5052283;28;20549;-77
2021/07/05 08:17:42;;;;;;;6.28;3.63;;;20.50;52.90;;;;;;5052672;28;20600;-77
2021/07/05 08:20:08;;;;;;;9.90;3.42;;;20.70;50.90;;;;;;5051642;28;20524;-77
2021/07/05 08:22:35;;;;;;;8.75;3.40;;;20.80;47.70;;;;;;5052607;28;20385;-77
2021/07/05 08:25:01;;;;;;;6.03;3.22;;;20.90;48.50;;;;;;5052590;28;20393;-77
2021/07/05 08:27:27;;;;;;;11.17;3.20;;;21.30;43.70;;;;;;5051598;28;20429;-77
2021/07/05 08:29:53;;;;;;;7.83;3.20;;;21.50;41.00;;;;;;5051901;28;20916;-76
2021/07/05 08:32:18;;;;;;;4.85;3.10;;;21.60;41.40;;;;;;5067158;28;20415;-77
2021/07/05 08:34:44;;;;;;;8.50;3.60;;;21.80;39.00;;;;;;5051620;28;20777;-77
2021/07/05 08:37:10;;;;;;;5.60;3.00;;;22.10;39.10;;;;;;5051478;28;20409;-77
2021/07/05 08:39:36;;;;;;;5.53;3.10;;;22.20;37.10;;;;;;5055369;28;20370;-78
2021/07/05 08:42:02;;;;;;;6.75;3.50;;;22.30;37.00;;;;;;5055211;28;20395;-77
2021/07/05 08:44:28;;;;;;;4.32;3.22;;;22.30;35.50;;;;;;5053478;28;20640;-76
2021/07/05 08:46:55;;;;;;;8.52;3.50;;;22.10;36.70;;;;;;5051729;28;20854;-76
2021/07/05 08:49:21;;;;;;;5.47;3.13;;;21.90;36.80;;;;;;5051326;28;20396;-77
2021/07/05 08:51:46;;;;;;;4.53;3.10;;;21.90;37.20;;;;;;5051494;28;20381;-76
2021/07/05 08:54:12;;;;;;;9.07;3.00;;;22.10;36.00;;;;;;5050853;28;20390;-77
2021/07/05 08:56:38;;;;;;;5.53;3.07;;;21.90;35.70;;;;;;5051686;28;20405;-77
2021/07/05 08:59:03;;;;;;;7.50;3.70;;;21.80;35.40;;;;;;5051607;28;20397;-77
2021/07/05 09:01:29;;;;;;;8.57;3.60;;;21.80;36.00;;;;;;5052125;28;20389;-77
2021/07/05 09:03:55;;;;;;;8.70;3.87;;;21.50;37.70;;;;;;5052038;28;20735;-77
2021/07/05 09:06:23;;;;;;;8.93;3.97;;;21.10;39.50;;;;;;5050698;28;20715;-77
2021/07/05 09:08:57;;;;;;;6.00;3.25;;;20.90;40.70;;;;;;5050969;28;20392;-77
2021/07/05 09:11:44;;;;;;;6.28;3.20;;;20.70;41.00;;;;;;5050929;28;20396;-78
2021/07/05 09:14:16;;;;;;;11.63;3.50;;;20.50;42.40;;;;;;5066380;28;20397;-77
2021/07/05 09:16:42;;;;;;;9.25;3.25;;;20.30;43.60;;;;;;5066530;28;20493;-76
2021/07/05 09:19:24;;;;;;;10.07;3.20;;;20.40;43.00;;;;;;5050736;28;20409;-77
2021/07/05 09:21:56;;;;;;;11.30;3.60;;;20.30;42.60;;;;;;5052052;28;20385;-77
2021/07/05 09:24:32;;;;;;;10.23;3.57;;;20.30;41.80;;;;;;5049483;28;20412;-77
2021/07/05 09:27:19;;;;;;;9.68;3.22;;;20.30;42.10;;;;;;5051794;28;20385;-77
2021/07/05 09:29:45;;;;;;;12.55;4.00;;;20.50;42.80;;;;;;5052100;28;20874;-78
2021/07/05 09:32:21;;;;;;;8.23;3.35;;;20.90;42.00;;;;;;5052087;28;20397;-76
2021/07/05 09:34:47;;;;;;;7.85;3.20;;;21.40;40.00;;;;;;5050900;28;20403;-77
2021/07/05 09:37:24;;;;;;;11.63;3.50;;;22.10;36.80;;;;;;5050517;28;20496;-76
2021/07/05 09:40:05;;;;;;;8.80;3.30;;;22.30;34.30;;;;;;5050747;28;20836;-77
2021/07/05 09:42:41;;;;;;;7.37;3.50;;;22.60;33.80;;;;;;5050811;28;20388;-76
2021/07/05 09:45:18;;;;;;;11.00;3.40;;;22.50;32.20;;;;;;5052430;28;20381;-78
2021/07/05 09:47:44;;;;;;;6.82;3.40;;;22.50;32.00;;;;;;5054012;28;20389;-77
2021/07/05 09:50:16;;;;;;;5.63;3.03;;;22.40;31.80;;;;;;5051250;28;20378;-77
2021/07/05 09:52:42;;;;;;;7.07;3.43;;;22.30;32.50;;;;;;5052277;28;20473;-77
2021/07/05 09:55:11;;;;;;;7.50;3.20;;;22.20;32.80;;;;;;5050909;28;20886;-77
2021/07/05 09:57:43;;;;;;;4.90;3.00;;;22.10;32.50;;;;;;5053582;28;20401;-77
2021/07/05 10:00:08;;;;;;;6.38;2.80;;;22.00;30.60;;;;;;5051886;28;20381;-77
2021/07/05 10:02:35;;;;;;;9.98;3.10;;;21.90;30.50;;;;;;5053005;28;20809;-77
2021/07/05 10:05:15;;;;;;;10.65;3.30;;;22.20;29.30;;;;;;5052034;28;20413;-77
2021/07/05 10:07:42;;;;;;;6.80;3.00;;;22.30;30.10;;;;;;5052859;28;20392;-78
2021/07/05 10:10:18;;;;;;;11.65;3.00;;;22.60;28.60;;;;;;5053699;28;20385;-77
2021/07/05 10:12:54;;;;;;;7.40;3.00;;;23.00;27.70;;;;;;5053550;28;20385;-77
2021/07/05 10:15:21;;;;;;;6.70;3.20;;;23.20;26.20;;;;;;5053573;28;20737;-77
2021/07/05 10:17:49;;;;;;;8.60;3.50;;;23.00;26.00;;;;;;5052441;28;20405;-76
2021/07/05 10:20:26;;;;;;;5.72;2.80;;;22.90;26.30;;;;;;5051485;28;20470;-78
2021/07/05 10:22:55;;;;;;;6.93;2.90;;;22.60;27.40;;;;;;5051302;28;20814;-77
2021/07/05 10:25:21;;;;;;;6.72;2.80;;;22.90;27.20;;;;;;5051986;28;20380;-77
2021/07/05 10:27:47;;;;;;;5.40;2.85;;;23.10;24.90;;;;;;5050320;28;20416;-77
2021/07/05 10:30:16;;;;;;;6.25;2.60;;;23.50;25.30;;;;;;5050047;28;20433;-77
2021/07/05 10:32:42;;;;;;;8.60;3.20;;;23.80;23.30;;;;;;5054047;28;20389;-77
2021/07/05 10:35:11;;;;;;;6.60;2.50;;;24.00;22.20;;;;;;5055068;28;20479;-77
2021/07/05 10:37:43;;;;;;;9.38;3.40;;;23.90;21.60;;;;;;5054966;28;21035;-78
2021/07/05 10:40:11;;;;;;;7.22;2.90;;;23.70;22.40;;;;;;5054752;28;20866;-78
2021/07/05 10:42:39;;;;;;;9.75;2.65;;;23.70;22.80;;;;;;5053522;28;20417;-77
2021/07/05 10:45:09;;;;;;;6.07;2.40;;;23.80;19.50;;;;;;5055362;28;20373;-77
2021/07/05 10:47:54;;;;;;;4.97;2.30;;;23.70;19.30;;;;;;5054631;28;20873;-77
2021/07/05 10:50:41;;;;;;;6.60;3.10;;;24.00;19.50;;;;;;5055060;28;20746;-76
2021/07/05 10:53:08;;;;;;;6.90;2.70;;;25.00;18.20;;;;;;5054173;28;20400;-75
2021/07/05 10:55:40;;;;;;;8.02;2.72;;;25.20;18.30;;;;;;5056481;28;20385;-78
2021/07/05 10:58:22;;;;;;;6.83;2.50;;;25.00;18.10;;;;;;5053549;28;20396;-77
2021/07/05 11:00:53;;;;;;;6.10;2.80;;;24.80;18.60;;;;;;5054636;28;20451;-78
2021/07/05 11:03:40;;;;;;;6.53;3.05;;;25.00;18.00;;;;;;5054765;28;20876;-76
2021/07/05 11:06:21;;;;;;;10.07;3.23;;;25.00;18.00;;;;;;5056242;28;20401;-77
2021/07/05 11:08:52;;;;;;;6.30;2.60;;;24.90;17.30;;;;;;5054938;28;20378;-77
2021/07/05 11:11:26;;;;;;;11.82;2.72;;;25.00;16.50;;;;;;5055510;28;20438;-78
2021/07/05 11:14:24;;;;;;;3.87;2.70;;;25.00;16.80;;;;;;5055941;28;20923;-77
2021/07/05 11:17:01;;;;;;;7.00;2.67;;;25.00;16.50;;;;;;5072054;28;20755;-77
2021/07/05 11:20:11;;;;;;;7.10;2.50;;;24.90;17.30;;;;;;5069907;28;20742;-77
2021/07/05 11:22:51;;;;;;;3.58;2.60;;;25.30;16.60;;;;;;5054568;28;20386;-77
2021/07/05 11:25:19;;;;;;;9.43;4.63;;;25.10;16.00;;;;;;5053896;28;20373;-77
2021/07/05 11:27:52;;;;;;;6.25;3.28;;;24.80;17.30;;;;;;5069377;28;20466;-76
2021/07/05 11:30:26;;;;;;;3.87;3.00;;;24.40;18.60;;;;;;5054609;28;20393;-77
2021/07/05 11:33:03;;;;;;;9.15;3.33;;;23.90;21.30;;;;;;5056344;28;20389;-76
2021/07/05 11:35:40;;;;;;;8.25;2.92;;;23.60;21.10;;;;;;5054011;28;20897;-77
2021/07/05 11:38:20;;;;;;;8.23;3.00;;;23.40;20.30;;;;;;5055196;28;20543;-77
2021/07/05 11:40:57;;;;;;;6.05;3.10;;;23.30;20.80;;;;;;5056531;28;20450;-77
2021/07/05 11:43:46;;;;;;;5.00;3.22;;;23.30;21.30;;;;;;5058169;28;20793;-77
2021/07/05 11:46:35;;;;;;;5.40;2.90;;;23.60;20.00;;;;;;5057198;28;20385;-77
2021/07/05 11:49:11;;;;;;;7.18;2.97;;;24.00;19.60;;;;;;5068823;28;20378;-76
2021/07/05 11:51:39;;;;;;;7.40;4.10;;;24.20;19.10;;;;;;5053388;28;20553;-77
2021/07/05 11:54:10;;;;;;;8.60;2.80;;;24.30;19.10;;;;;;5052822;28;20415;-77
2021/07/05 11:56:44;;;;;;;11.48;3.17;;;24.30;18.10;;;;;;5052586;28;20397;-76
2021/07/05 11:59:12;;;;;;;7.40;3.33;;;24.10;18.40;;;;;;5056863;28;20389;-75
2021/07/05 12:01:39;;;;;;;4.90;2.70;;;24.00;19.00;;;;;;5058732;28;20382;-75
2021/07/05 12:04:06;;;;;;;6.40;3.55;;;24.30;17.60;;;;;;5058900;28;20381;-77
2021/07/05 12:06:33;;;;;;;8.27;3.33;;;24.50;18.00;;;;;;5052915;28;20443;-77
2021/07/05 12:09:06;;;;;;;4.35;2.83;;;24.60;16.40;;;;;;5052883;28;20469;-77
2021/07/05 12:11:41;;;;;;;4.33;2.60;;;24.60;16.70;;;;;;5054573;28;20385;-77
2021/07/05 12:14:09;;;;;;;7.80;3.00;;;24.40;16.60;;;;;;5054040;28;20389;-76
2021/07/05 12:16:37;;;;;;;4.50;2.90;;;24.30;16.90;;;;;;5052652;28;20742;-76
2021/07/05 12:19:03;;;;;;;4.72;2.47;;;24.20;17.30;;;;;;5052048;28;20468;-76
2021/07/05 12:21:33;;;;;;;5.03;2.60;;;23.80;16.80;;;;;;5052472;28;20393;-77
2021/07/05 12:24:15;;;;;;;7.13;2.30;;;23.60;17.10;;;;;;5052302;28;20421;-76
2021/07/05 12:26:52;;;;;;;4.22;2.03;;;23.50;17.70;;;;;;5050544;28;20819;-77
2021/07/05 12:29:24;;;;;;;3.87;2.40;;;23.30;18.10;;;;;;5052190;28;20417;-77
2021/07/05 12:32:15;;;;;;;4.80;2.30;;;23.30;18.10;;;;;;5051466;28;20425;-77
2021/07/05 12:35:21;;;;;;;2.88;2.05;;;23.10;19.00;;;;;;5058471;28;20476;-76
2021/07/05 12:37:55;;;;;;;5.72;2.00;;;22.80;19.90;;;;;;5009229;28;20416;-77
2021/07/05 12:40:24;;;;;;;4.25;2.00;;;22.40;23.90;;;;;;5057370;28;20405;-76
2021/07/05 12:42:55;;;;;;;6.10;2.45;;;22.30;24.60;;;;;;5051178;28;20418;-76
2021/07/05 12:45:27;;;;;;;3.70;2.00;;;22.00;26.40;;;;;;5051880;28;20399;-76
2021/07/05 12:48:00;;;;;;;3.05;1.90;;;21.90;28.30;;;;;;5051078;28;20439;-77
2021/07/05 12:50:36;;;;;;;4.95;2.20;;;22.10;27.90;;;;;;5051244;28;20751;-77
2021/07/05 12:53:11;;;;;;;3.05;2.35;;;22.20;29.60;;;;;;5051083;28;20393;-76